Reading, Massachusetts
Current Conditions -  °F | °C
As of 2:53 AM on Friday 19 Dec 2014 (Local Time) from KBVY Reporting Station
Broken Clouds Broken Clouds  
Wind Chill: 25°   Ceiling: 5000
Heat Index: 32°   Visibility: 10mi
Dew Point: 23°   Wind: 8mph
Humidity: 69%   Direction: 310°NW
Pressure: 29.86"   Gusts: NA
Location:  42.53°N, 71.1°W
Report Text: KBVY 190753Z AUTO 31007KT 10SM BKN050 00/M05 A2986 RMK AO2 SLP108 T00001050
Loading
Personal Weather Stations






























Interactive Weather Map New forecast layout! Learn more

10-Day Weather Forecast

Advertisements
Track Severe Weather on mobile